Time;durP1;ratioP1;P1;durP2;ratioP2;P2;SDS_P1;SDS_P2;PMS_P1;PMS_P2;Temp;Humidity;BMP_temperature;BMP_pressure;BME280_temperature;BME280_humidity;BME280_pressure;Samples;Min_cycle;Max_cycle;Signal;HPM_P1;HPM_P2
2022/09/23 00:01:21;;;;;;;4.93;2.78;;;10.30;99.90;;;;;;5013479;28;20026;-43
2022/09/23 00:03:47;;;;;;;7.32;2.88;;;10.30;99.90;;;;;;5013087;28;20566;-42
2022/09/23 00:06:21;;;;;;;6.85;3.67;;;10.20;99.90;;;;;;5013274;28;20034;-43
2022/09/23 00:08:48;;;;;;;3.33;2.63;;;10.10;99.90;;;;;;4993993;28;20072;-43
2022/09/23 00:11:16;;;;;;;3.58;3.25;;;10.10;99.90;;;;;;4993579;28;20450;-41
2022/09/23 00:13:45;;;;;;;6.53;3.60;;;10.10;99.90;;;;;;4990276;28;20030;-42
2022/09/23 00:16:13;;;;;;;4.03;3.30;;;10.00;99.90;;;;;;4992411;28;20117;-40
2022/09/23 00:18:40;;;;;;;6.15;3.30;;;9.90;99.90;;;;;;4993556;28;20108;-42
2022/09/23 00:21:09;;;;;;;5.50;3.78;;;9.90;99.90;;;;;;4993667;28;20023;-42
2022/09/23 00:23:35;;;;;;;6.53;3.30;;;9.90;99.90;;;;;;4993014;28;20041;-47
2022/09/23 00:26:03;;;;;;;6.43;3.70;;;9.80;99.90;;;;;;4993410;28;20092;-42
2022/09/23 00:28:29;;;;;;;7.95;3.53;;;9.70;99.90;;;;;;4993451;28;20105;-42
2022/09/23 00:30:55;;;;;;;4.63;2.80;;;9.70;99.90;;;;;;4993505;28;20034;-45
2022/09/23 00:33:20;;;;;;;6.70;3.72;;;9.70;99.90;;;;;;4993066;28;20030;-42
2022/09/23 00:35:46;;;;;;;6.72;4.15;;;9.70;99.90;;;;;;4992259;28;20413;-43
2022/09/23 00:38:13;;;;;;;5.57;3.45;;;9.60;99.90;;;;;;4993158;28;20517;-45
2022/09/23 00:40:43;;;;;;;5.55;3.15;;;9.60;99.90;;;;;;4993385;28;20035;-42
2022/09/23 00:43:12;;;;;;;5.03;3.63;;;9.60;99.90;;;;;;4992910;28;20026;-44
2022/09/23 00:45:39;;;;;;;5.13;3.42;;;9.60;99.90;;;;;;4993138;28;20041;-46
2022/09/23 00:48:05;;;;;;;6.50;3.50;;;9.60;99.90;;;;;;4993144;28;20038;-52
2022/09/23 00:50:37;;;;;;;6.95;4.00;;;9.60;99.90;;;;;;4993169;28;20023;-42
2022/09/23 00:53:08;;;;;;;6.85;3.58;;;9.50;99.90;;;;;;4993060;28;20030;-44
2022/09/23 00:55:46;;;;;;;4.70;4.07;;;9.50;99.90;;;;;;4992994;28;20022;-42
2022/09/23 00:58:16;;;;;;;4.75;4.32;;;9.40;99.90;;;;;;4992330;28;20030;-43
2022/09/23 01:00:42;;;;;;;6.63;3.38;;;9.40;99.90;;;;;;4993294;28;20085;-41
2022/09/23 01:03:09;;;;;;;7.28;3.92;;;9.40;99.90;;;;;;4992992;28;20034;-41
2022/09/23 01:05:38;;;;;;;7.75;4.55;;;9.30;99.90;;;;;;4993169;28;20033;-39
2022/09/23 01:08:05;;;;;;;6.60;4.43;;;9.30;99.90;;;;;;4993363;28;20070;-41
2022/09/23 01:10:47;;;;;;;6.75;4.25;;;9.30;99.90;;;;;;5000872;28;20033;-46
2022/09/23 01:13:36;;;;;;;6.85;4.03;;;9.30;99.90;;;;;;5002425;28;20073;-41
2022/09/23 01:16:10;;;;;;;5.53;4.57;;;9.20;99.90;;;;;;4992659;28;20033;-39
2022/09/23 01:18:59;;;;;;;8.48;4.85;;;9.20;99.90;;;;;;4992568;28;20034;-44
2022/09/23 01:21:40;;;;;;;7.20;4.05;;;9.10;99.90;;;;;;4991259;28;20027;-42
2022/09/23 01:24:26;;;;;;;5.07;4.28;;;9.10;99.90;;;;;;4992352;28;20019;-42
2022/09/23 01:26:55;;;;;;;11.50;4.28;;;9.00;99.90;;;;;;4991655;28;20041;-47
2022/09/23 01:29:45;;;;;;;8.77;5.22;;;8.90;99.90;;;;;;4992487;28;20053;-43
2022/09/23 01:32:37;;;;;;;10.55;4.35;;;8.90;99.90;;;;;;4992275;28;20029;-47
2022/09/23 01:35:09;;;;;;;7.30;5.10;;;8.80;99.90;;;;;;4992303;28;20029;-42
2022/09/23 01:37:47;;;;;;;7.32;4.70;;;8.80;99.90;;;;;;4990924;28;20033;-41
2022/09/23 01:40:31;;;;;;;11.63;4.70;;;8.80;99.90;;;;;;4992484;28;20018;-52
2022/09/23 01:43:12;;;;;;;5.57;4.97;;;8.80;99.90;;;;;;4992070;28;20069;-44
2022/09/23 01:45:48;;;;;;;5.57;5.05;;;8.90;99.90;;;;;;4992311;28;20019;-43
2022/09/23 01:48:13;;;;;;;7.75;4.72;;;8.80;99.90;;;;;;4992227;28;20023;-44
2022/09/23 01:50:56;;;;;;;5.82;4.72;;;8.80;99.90;;;;;;5007275;28;20029;-39
2022/09/23 01:53:37;;;;;;;7.15;4.72;;;8.80;99.90;;;;;;4991986;28;20398;-45
2022/09/23 01:56:26;;;;;;;7.00;4.60;;;8.90;99.90;;;;;;4992063;28;20019;-41
2022/09/23 01:59:04;;;;;;;8.38;6.88;;;8.80;99.90;;;;;;4991576;28;20022;-41
2022/09/23 02:01:39;;;;;;;11.07;4.97;;;8.80;99.90;;;;;;4992115;28;20469;-40
2022/09/23 02:04:11;;;;;;;10.25;4.45;;;8.70;99.90;;;;;;4991749;28;20052;-43
2022/09/23 02:06:49;;;;;;;6.40;4.97;;;8.70;99.90;;;;;;4992085;28;20038;-43
2022/09/23 02:09:23;;;;;;;6.32;5.47;;;8.70;99.90;;;;;;4992093;28;20161;-44
2022/09/23 02:11:51;;;;;;;5.28;4.78;;;8.70;99.90;;;;;;4992171;28;20038;-37
2022/09/23 02:14:24;;;;;;;5.97;5.10;;;8.70;99.90;;;;;;4991955;28;20022;-46
2022/09/23 02:16:54;;;;;;;6.63;5.60;;;8.70;99.90;;;;;;4992002;28;20034;-44
2022/09/23 02:19:35;;;;;;;12.20;5.43;;;8.60;99.90;;;;;;4992111;28;20105;-42
2022/09/23 02:22:11;;;;;;;6.20;5.15;;;8.60;99.90;;;;;;4991663;28;20037;-46
2022/09/23 02:24:38;;;;;;;8.32;5.22;;;8.60;99.90;;;;;;4992036;28;20023;-41
2022/09/23 02:27:19;;;;;;;6.80;5.07;;;8.60;99.90;;;;;;4991891;28;20029;-41
2022/09/23 02:30:07;;;;;;;9.00;6.20;;;8.60;99.90;;;;;;4991961;28;20489;-41
2022/09/23 02:32:58;;;;;;;11.70;5.03;;;8.50;99.90;;;;;;4991771;28;20031;-43
2022/09/23 02:35:32;;;;;;;8.73;5.75;;;8.40;99.90;;;;;;4991945;28;20027;-44
2022/09/23 02:38:20;;;;;;;6.18;5.68;;;8.40;99.90;;;;;;4992043;28;20516;-45
2022/09/23 02:40:57;;;;;;;8.32;5.63;;;8.30;99.90;;;;;;4991898;28;20034;-41
2022/09/23 02:43:34;;;;;;;7.20;5.72;;;8.30;99.90;;;;;;4991595;28;20033;-42
2022/09/23 02:46:01;;;;;;;7.53;5.78;;;8.30;99.90;;;;;;4991860;28;20029;-41
2022/09/23 02:48:39;;;;;;;5.68;5.18;;;8.30;99.90;;;;;;4994236;28;20110;-44
2022/09/23 02:51:05;;;;;;;9.25;5.55;;;8.20;99.90;;;;;;4994124;28;20023;-46
2022/09/23 02:53:33;;;;;;;5.78;4.75;;;8.10;99.90;;;;;;4995186;28;20026;-48
2022/09/23 02:56:00;;;;;;;11.55;5.68;;;8.10;99.90;;;;;;4995387;28;20026;-41
2022/09/23 02:58:27;;;;;;;7.95;5.53;;;8.00;99.90;;;;;;4995272;28;20034;-42
2022/09/23 03:01:09;;;;;;;8.02;5.82;;;8.00;99.90;;;;;;4995612;28;20401;-41
2022/09/23 03:03:53;;;;;;;7.32;5.90;;;7.90;99.90;;;;;;4994865;28;20397;-44
2022/09/23 03:06:26;;;;;;;5.88;5.22;;;7.90;99.90;;;;;;4995246;28;20080;-45
2022/09/23 03:09:26;;;;;;;6.05;5.45;;;7.90;99.90;;;;;;4995716;28;20092;-42
2022/09/23 03:12:04;;;;;;;7.85;5.65;;;7.90;99.90;;;;;;4970034;28;20117;-38
2022/09/23 03:14:48;;;;;;;7.30;4.97;;;7.80;99.90;;;;;;4995614;28;20023;-42
2022/09/23 03:17:20;;;;;;;9.60;6.05;;;7.90;99.90;;;;;;4995692;28;20062;-45
2022/09/23 03:19:59;;;;;;;10.73;5.88;;;7.80;99.90;;;;;;4995622;28;20080;-42
2022/09/23 03:22:39;;;;;;;7.85;6.10;;;7.90;99.90;;;;;;4995397;28;20022;-43
2022/09/23 03:25:10;;;;;;;6.85;5.78;;;7.90;99.90;;;;;;4995857;28;20394;-45
2022/09/23 03:27:37;;;;;;;7.20;6.07;;;7.90;99.90;;;;;;4995748;28;20078;-42
2022/09/23 03:30:05;;;;;;;5.70;4.95;;;7.90;99.90;;;;;;4996348;28;20026;-39
2022/09/23 03:32:33;;;;;;;8.35;6.50;;;7.90;99.90;;;;;;4996203;28;20402;-43
2022/09/23 03:35:00;;;;;;;7.82;6.13;;;7.90;99.90;;;;;;4995814;28;20023;-47
2022/09/23 03:37:38;;;;;;;6.95;6.25;;;7.90;99.90;;;;;;4995919;28;20368;-43
2022/09/23 03:40:19;;;;;;;6.18;5.57;;;7.90;99.90;;;;;;4996558;28;20041;-41
2022/09/23 03:42:47;;;;;;;6.90;5.10;;;7.90;99.90;;;;;;4996352;28;20490;-46
2022/09/23 03:45:17;;;;;;;13.20;6.30;;;7.90;99.90;;;;;;4995924;28;20046;-42
2022/09/23 03:47:43;;;;;;;9.10;5.90;;;7.80;99.90;;;;;;4995655;28;20491;-40
2022/09/23 03:50:09;;;;;;;6.40;5.80;;;7.90;99.90;;;;;;4996705;28;20030;-41
2022/09/23 03:52:34;;;;;;;5.78;5.15;;;7.90;99.90;;;;;;5002780;28;20076;-41
2022/09/23 03:55:00;;;;;;;6.70;5.75;;;7.90;99.90;;;;;;4998683;28;20034;-41
2022/09/23 03:57:26;;;;;;;6.43;5.72;;;7.80;99.90;;;;;;4995328;28;20473;-42
2022/09/23 03:59:52;;;;;;;6.60;5.85;;;7.80;99.90;;;;;;4993319;28;20109;-43
2022/09/23 04:02:18;;;;;;;5.68;5.25;;;7.90;99.90;;;;;;4992840;28;20034;-46
2022/09/23 04:04:44;;;;;;;8.27;6.70;;;7.90;99.90;;;;;;4992978;28;20442;-49
2022/09/23 04:07:11;;;;;;;7.20;5.18;;;7.90;99.90;;;;;;4994462;28;20138;-48
2022/09/23 04:09:37;;;;;;;5.63;5.13;;;7.90;99.90;;;;;;4994535;28;20037;-44
2022/09/23 04:12:03;;;;;;;6.55;5.30;;;7.90;99.90;;;;;;4994302;28;20027;-41
2022/09/23 04:14:29;;;;;;;6.38;5.75;;;7.90;99.90;;;;;;4994209;28;20038;-44
2022/09/23 04:16:54;;;;;;;10.63;5.75;;;7.90;99.90;;;;;;4994343;28;20026;-42
2022/09/23 04:19:20;;;;;;;7.82;5.55;;;7.80;99.90;;;;;;4994121;28;20080;-43
2022/09/23 04:21:46;;;;;;;7.50;5.53;;;7.90;99.90;;;;;;4993835;28;20026;-39
2022/09/23 04:24:12;;;;;;;5.47;4.97;;;7.80;99.90;;;;;;4994247;28;20096;-43
2022/09/23 04:26:38;;;;;;;5.43;4.85;;;7.80;99.90;;;;;;4993799;28;20023;-43
2022/09/23 04:29:04;;;;;;;6.80;5.25;;;7.70;99.90;;;;;;4993991;28;20034;-41
2022/09/23 04:31:31;;;;;;;8.40;5.75;;;7.80;99.90;;;;;;4993900;28;20030;-43
2022/09/23 04:33:57;;;;;;;7.35;6.28;;;7.80;99.90;;;;;;4993798;28;20054;-43
2022/09/23 04:36:23;;;;;;;8.73;6.15;;;7.80;99.90;;;;;;4993638;28;20478;-45
2022/09/23 04:38:49;;;;;;;5.50;4.95;;;7.80;99.90;;;;;;4993479;28;20029;-45
2022/09/23 04:41:16;;;;;;;10.13;5.95;;;7.90;99.90;;;;;;4993681;28;20500;-42
2022/09/23 04:43:41;;;;;;;6.97;6.03;;;7.80;99.90;;;;;;4993037;28;20030;-44
2022/09/23 04:46:09;;;;;;;10.00;5.80;;;7.90;99.90;;;;;;4993725;28;20410;-42
2022/09/23 04:48:36;;;;;;;9.02;6.45;;;7.90;99.90;;;;;;4993920;28;20086;-42
2022/09/23 04:51:07;;;;;;;11.90;6.57;;;7.80;99.90;;;;;;4993284;28;20019;-46
2022/09/23 04:53:34;;;;;;;9.45;5.65;;;7.90;99.90;;;;;;4993252;28;20411;-44
2022/09/23 04:56:10;;;;;;;7.80;5.55;;;7.90;99.90;;;;;;4993559;28;20033;-42
2022/09/23 04:58:35;;;;;;;;;;;7.90;99.90;;;;;;4994656;28;20038;-41
2022/09/23 05:01:11;;;;;;;5.68;5.15;;;7.90;99.90;;;;;;4994016;28;20059;-42
2022/09/23 05:03:37;;;;;;;7.80;5.82;;;7.90;99.90;;;;;;4993625;28;20078;-42
2022/09/23 05:06:03;;;;;;;7.00;5.45;;;7.90;99.90;;;;;;5018301;23;20013;-49
2022/09/23 05:08:29;;;;;;;9.02;5.70;;;8.00;99.90;;;;;;5013782;28;20033;-51
2022/09/23 05:10:58;;;;;;;8.52;5.43;;;8.00;99.90;;;;;;5013757;28;20486;-49
2022/09/23 05:13:24;;;;;;;6.90;5.32;;;8.00;99.90;;;;;;5013541;28;20540;-48
2022/09/23 05:15:58;;;;;;;8.60;5.38;;;8.00;99.90;;;;;;5012699;28;20030;-51
2022/09/23 05:18:24;;;;;;;7.03;5.50;;;8.00;99.90;;;;;;5003550;28;20027;-49
2022/09/23 05:20:56;;;;;;;9.07;5.50;;;8.00;99.90;;;;;;5018604;28;20080;-51
2022/09/23 05:23:22;;;;;;;6.45;5.43;;;8.00;99.90;;;;;;5019312;28;20504;-50
2022/09/23 05:25:48;;;;;;;15.98;6.18;;;7.90;99.90;;;;;;5018249;28;20022;-47
2022/09/23 05:28:17;;;;;;;7.22;5.40;;;8.00;99.90;;;;;;5013860;28;20042;-51
2022/09/23 05:30:43;;;;;;;10.18;5.68;;;7.90;99.90;;;;;;5016085;28;20018;-48
2022/09/23 05:33:09;;;;;;;8.45;5.28;;;7.90;99.90;;;;;;5014321;28;20030;-48
2022/09/23 05:35:34;;;;;;;5.57;5.07;;;8.00;99.90;;;;;;5016555;28;20029;-47
2022/09/23 05:38:00;;;;;;;9.52;5.95;;;8.00;99.90;;;;;;5015902;28;20120;-52
2022/09/23 05:40:25;;;;;;;8.05;5.18;;;8.10;99.90;;;;;;5013474;28;20576;-48
2022/09/23 05:42:51;;;;;;;7.05;5.38;;;8.10;99.90;;;;;;5008178;28;20052;-47
2022/09/23 05:45:17;;;;;;;6.38;4.68;;;8.20;99.90;;;;;;5010137;28;20080;-47
2022/09/23 05:47:42;;;;;;;7.97;4.78;;;8.30;99.90;;;;;;4998481;28;20524;-46
2022/09/23 05:50:08;;;;;;;9.38;5.35;;;8.30;99.90;;;;;;4992388;28;20191;-47
2022/09/23 05:52:34;;;;;;;6.38;5.20;;;8.40;99.90;;;;;;5011809;28;20550;-47
2022/09/23 05:55:00;;;;;;;6.15;5.00;;;8.70;99.90;;;;;;5010771;28;20018;-49
2022/09/23 05:57:26;;;;;;;7.82;4.43;;;8.70;99.90;;;;;;5005606;28;20079;-45
2022/09/23 05:59:51;;;;;;;8.13;4.80;;;8.70;99.90;;;;;;4991059;28;20023;-49
2022/09/23 06:02:17;;;;;;;6.05;5.32;;;8.80;99.90;;;;;;5003082;28;20040;-49
2022/09/23 06:04:42;;;;;;;7.13;4.97;;;8.80;99.90;;;;;;5012099;28;20359;-48
2022/09/23 06:07:08;;;;;;;5.18;4.78;;;8.90;99.90;;;;;;5012039;28;20026;-48
2022/09/23 06:09:34;;;;;;;5.25;4.47;;;8.90;99.90;;;;;;5011637;28;20029;-54
2022/09/23 06:11:59;;;;;;;5.72;5.10;;;9.00;99.90;;;;;;5011705;28;20030;-47
2022/09/23 06:14:26;;;;;;;5.32;4.63;;;8.90;99.90;;;;;;5011820;28;20041;-48
2022/09/23 06:16:51;;;;;;;5.32;4.57;;;9.00;99.90;;;;;;5011710;28;20053;-48
2022/09/23 06:19:16;;;;;;;6.65;4.60;;;9.10;99.90;;;;;;5012355;28;20049;-49
2022/09/23 06:21:42;;;;;;;5.78;5.13;;;9.10;99.90;;;;;;5011656;28;20105;-52
2022/09/23 06:24:08;;;;;;;7.00;4.47;;;9.10;99.90;;;;;;5015146;28;20026;-50
2022/09/23 06:26:36;;;;;;;6.47;4.85;;;9.00;99.90;;;;;;5015545;28;20025;-52
2022/09/23 06:29:07;;;;;;;8.60;4.80;;;9.00;99.90;;;;;;5013601;28;20022;-47
2022/09/23 06:31:32;;;;;;;8.30;4.75;;;9.00;99.90;;;;;;5015717;28;20429;-48
2022/09/23 06:33:58;;;;;;;5.43;4.78;;;9.00;99.90;;;;;;5015207;28;20028;-48
2022/09/23 06:36:24;;;;;;;7.70;4.97;;;8.90;99.90;;;;;;5015068;28;20068;-53
2022/09/23 06:38:49;;;;;;;7.82;4.70;;;8.90;99.90;;;;;;5015042;28;20026;-52
2022/09/23 06:41:16;;;;;;;9.63;4.55;;;9.00;99.90;;;;;;5015169;28;20014;-53
2022/09/23 06:43:41;;;;;;;5.63;4.95;;;9.00;99.90;;;;;;5014782;28;20509;-53
2022/09/23 06:46:07;;;;;;;7.15;4.80;;;9.10;99.90;;;;;;5014936;28;20080;-49
2022/09/23 06:48:34;;;;;;;6.22;4.88;;;9.10;99.90;;;;;;5014798;28;20160;-51
2022/09/23 06:51:04;;;;;;;7.60;5.30;;;9.10;99.90;;;;;;5014795;28;20029;-50
2022/09/23 06:53:31;;;;;;;5.75;4.88;;;9.20;99.90;;;;;;5014638;28;20030;-51
2022/09/23 06:56:05;;;;;;;5.18;4.68;;;9.20;99.90;;;;;;5013415;28;20033;-50
2022/09/23 06:58:32;;;;;;;6.32;4.95;;;9.40;99.90;;;;;;5014652;28;20038;-50
2022/09/23 07:01:12;;;;;;;5.80;5.20;;;9.50;99.90;;;;;;5014758;28;20033;-48
2022/09/23 07:03:38;;;;;;;5.40;4.47;;;9.70;99.90;;;;;;5014323;28;20030;-50
2022/09/23 07:06:04;;;;;;;5.47;4.32;;;10.00;99.90;;;;;;5014528;28;20026;-51
2022/09/23 07:08:32;;;;;;;5.32;4.60;;;10.20;99.90;;;;;;5014665;28;20118;-50
2022/09/23 07:11:00;;;;;;;8.15;4.45;;;10.20;99.90;;;;;;5014572;28;20108;-49
2022/09/23 07:13:26;;;;;;;8.88;4.78;;;10.30;99.90;;;;;;5014410;28;20022;-50
2022/09/23 07:15:54;;;;;;;10.85;4.55;;;10.60;99.90;;;;;;5014570;28;20029;-51
2022/09/23 07:18:24;;;;;;;7.85;4.70;;;10.90;99.90;;;;;;5014278;28;20030;-50
2022/09/23 07:20:50;;;;;;;7.55;4.32;;;11.30;99.90;;;;;;5014356;28;20097;-50
2022/09/23 07:23:19;;;;;;;9.50;4.25;;;11.60;99.90;;;;;;5014181;28;20033;-50
2022/09/23 07:25:45;;;;;;;11.38;4.55;;;11.80;99.90;;;;;;5014394;28;20375;-49
2022/09/23 07:28:11;;;;;;;6.03;4.13;;;12.00;99.90;;;;;;5013813;28;20022;-49
2022/09/23 07:30:38;;;;;;;8.55;4.65;;;12.10;99.90;;;;;;5014234;28;20022;-48
2022/09/23 07:33:04;;;;;;;5.78;4.07;;;12.20;99.90;;;;;;5013786;28;20122;-48
2022/09/23 07:35:29;;;;;;;4.72;3.88;;;12.40;99.90;;;;;;5013194;28;20484;-49
2022/09/23 07:37:55;;;;;;;6.00;4.28;;;12.70;99.90;;;;;;5014129;28;20079;-48
2022/09/23 07:40:20;;;;;;;7.03;3.83;;;13.00;99.90;;;;;;5013877;28;20025;-48
2022/09/23 07:42:46;;;;;;;3.90;3.60;;;13.30;99.90;;;;;;5013314;28;20105;-49
2022/09/23 07:45:12;;;;;;;7.80;4.28;;;13.40;99.90;;;;;;5013761;28;20021;-53
2022/09/23 07:47:38;;;;;;;4.43;4.03;;;13.30;99.90;;;;;;5013800;28;20379;-49
2022/09/23 07:50:06;;;;;;;5.22;4.10;;;13.30;99.90;;;;;;5013756;28;20025;-49
2022/09/23 07:52:35;;;;;;;4.78;4.00;;;13.10;99.90;;;;;;5013266;28;20034;-49
2022/09/23 07:55:00;;;;;;;4.68;4.10;;;12.90;99.90;;;;;;5013716;28;20026;-48
2022/09/23 07:57:26;;;;;;;4.07;3.70;;;12.70;99.90;;;;;;5013696;28;20681;-47
2022/09/23 07:59:51;;;;;;;10.95;4.70;;;12.60;99.90;;;;;;5008522;28;20379;-48
2022/09/23 08:02:17;;;;;;;4.57;4.18;;;12.50;99.90;;;;;;5005861;28;20038;-47
2022/09/23 08:04:42;;;;;;;8.32;4.28;;;12.50;99.90;;;;;;5002681;28;20027;-47
2022/09/23 08:07:10;;;;;;;7.45;4.13;;;12.50;99.90;;;;;;5011495;28;20029;-50
2022/09/23 08:09:40;;;;;;;12.25;4.10;;;12.50;99.90;;;;;;5013033;28;20117;-49
2022/09/23 08:12:07;;;;;;;4.70;3.65;;;12.40;99.90;;;;;;5012338;28;20490;-49
2022/09/23 08:14:32;;;;;;;7.97;4.90;;;12.40;99.90;;;;;;5007389;28;20023;-49
2022/09/23 08:16:58;;;;;;;6.80;4.53;;;12.30;99.90;;;;;;5008926;28;20034;-47
2022/09/23 08:19:23;;;;;;;10.70;4.28;;;12.40;99.90;;;;;;4994710;28;20398;-50
2022/09/23 08:21:51;;;;;;;6.95;3.45;;;12.30;99.90;;;;;;4999348;28;20452;-45
2022/09/23 08:24:22;;;;;;;7.10;4.53;;;12.30;99.90;;;;;;5013305;28;20072;-52
2022/09/23 08:26:49;;;;;;;10.25;4.30;;;12.30;99.90;;;;;;5013751;28;20437;-48
2022/09/23 08:29:16;;;;;;;6.38;4.20;;;12.40;99.90;;;;;;5013829;28;20390;-48
2022/09/23 08:31:42;;;;;;;7.22;4.57;;;12.40;99.90;;;;;;5013883;28;20075;-49
2022/09/23 08:34:08;;;;;;;4.53;4.13;;;12.40;99.90;;;;;;5007073;28;20116;-55
2022/09/23 08:36:34;;;;;;;4.93;4.00;;;12.60;99.90;;;;;;4995607;28;20478;-58
2022/09/23 08:39:00;;;;;;;8.73;4.15;;;12.70;99.90;;;;;;4993372;28;20026;-53
2022/09/23 08:41:31;;;;;;;5.60;4.05;;;12.80;99.90;;;;;;4993157;28;20110;-57
2022/09/23 08:44:01;;;;;;;4.95;4.10;;;12.80;99.90;;;;;;4993093;28;20034;-51
2022/09/23 08:46:36;;;;;;;4.80;3.78;;;12.90;99.90;;;;;;5007375;28;20084;-56
2022/09/23 08:49:06;;;;;;;13.73;4.43;;;13.00;99.90;;;;;;5012745;28;20110;-54
2022/09/23 08:51:38;;;;;;;4.30;3.78;;;13.20;99.90;;;;;;5009696;28;20268;-51
2022/09/23 08:54:04;;;;;;;5.88;3.85;;;13.80;99.90;;;;;;5012033;28;20046;-53
2022/09/23 08:56:30;;;;;;;4.82;3.28;;;14.90;99.90;;;;;;5012053;28;20079;-55
2022/09/23 08:59:13;;;;;;;6.40;3.35;;;16.10;99.90;;;;;;5006900;28;20026;-56
2022/09/23 09:01:52;;;;;;;5.80;3.45;;;17.20;99.90;;;;;;5003356;28;20022;-56
2022/09/23 09:04:26;;;;;;;7.05;3.72;;;18.20;98.60;;;;;;5011974;28;20540;-53
2022/09/23 09:07:07;;;;;;;3.67;2.70;;;19.00;97.60;;;;;;4994930;28;20034;-52
2022/09/23 09:09:42;;;;;;;11.95;3.20;;;19.80;96.60;;;;;;5007193;28;20509;-57
2022/09/23 09:12:21;;;;;;;5.82;3.00;;;20.50;96.10;;;;;;4990613;28;20037;-57
2022/09/23 09:15:03;;;;;;;4.72;2.70;;;21.50;94.00;;;;;;5010813;28;20033;-55
2022/09/23 09:17:40;;;;;;;5.47;2.78;;;21.80;92.50;;;;;;5009715;28;20110;-55
2022/09/23 09:20:17;;;;;;;4.90;2.35;;;22.00;91.20;;;;;;5023099;28;20029;-57
2022/09/23 09:22:51;;;;;;;3.88;2.45;;;22.40;90.70;;;;;;5025900;28;20079;-54
2022/09/23 09:25:41;;;;;;;6.18;3.20;;;22.50;89.70;;;;;;5012374;28;20022;-55
2022/09/23 09:28:29;;;;;;;3.75;2.83;;;22.90;88.60;;;;;;5011803;28;20056;-53
2022/09/23 09:30:58;;;;;;;3.25;2.58;;;22.90;88.00;;;;;;5007114;28;20022;-52
2022/09/23 09:33:39;;;;;;;4.97;2.80;;;22.70;87.60;;;;;;5003669;28;20026;-52
2022/09/23 09:36:19;;;;;;;3.30;2.90;;;22.50;87.30;;;;;;5011849;28;20088;-50
2022/09/23 09:38:45;;;;;;;4.55;2.67;;;22.00;88.20;;;;;;5011889;28;20105;-54
2022/09/23 09:41:14;;;;;;;6.55;3.50;;;21.60;90.10;;;;;;5011832;28;20026;-56
2022/09/23 09:43:47;;;;;;;3.95;2.97;;;21.20;90.30;;;;;;5011424;28;20401;-57
2022/09/23 09:46:28;;;;;;;5.28;2.72;;;21.20;90.20;;;;;;5011574;28;20101;-59
2022/09/23 09:49:24;;;;;;;6.78;3.05;;;21.00;89.00;;;;;;5004713;28;20109;-55
2022/09/23 09:52:11;;;;;;;3.33;2.63;;;20.50;89.20;;;;;;4993435;28;20148;-57
2022/09/23 09:54:37;;;;;;;4.38;2.85;;;20.20;90.30;;;;;;4992119;28;20114;-54
2022/09/23 09:57:04;;;;;;;3.47;2.92;;;20.00;90.70;;;;;;4991540;28;20402;-54
2022/09/23 09:59:31;;;;;;;6.00;2.90;;;19.40;91.50;;;;;;5015708;28;20029;-53
2022/09/23 10:02:16;;;;;;;3.10;2.80;;;19.30;92.00;;;;;;5030868;28;20033;-53
2022/09/23 10:04:41;;;;;;;9.30;3.30;;;19.40;92.70;;;;;;5031268;28;20029;-54
2022/09/23 10:07:25;;;;;;;4.35;2.95;;;19.70;92.40;;;;;;5030303;28;20042;-55
2022/09/23 10:09:50;;;;;;;3.45;3.03;;;19.70;92.00;;;;;;5031066;28;20022;-52
2022/09/23 10:12:21;;;;;;;5.47;3.72;;;19.50;92.20;;;;;;5030169;28;20168;-54
2022/09/23 10:14:50;;;;;;;8.10;4.00;;;19.40;92.40;;;;;;5031358;28;20033;-49
2022/09/23 10:17:27;;;;;;;4.68;3.45;;;19.20;92.80;;;;;;5029710;28;20025;-48
2022/09/23 10:19:59;;;;;;;5.25;3.20;;;19.10;92.70;;;;;;4991908;28;20042;-48
2022/09/23 10:22:33;;;;;;;7.88;2.90;;;19.10;93.40;;;;;;4991329;28;20080;-47
2022/09/23 10:25:05;;;;;;;7.45;3.10;;;19.00;94.10;;;;;;5004654;28;20053;-49
2022/09/23 10:27:34;;;;;;;2.80;2.63;;;19.10;93.90;;;;;;5011222;28;20104;-47
2022/09/23 10:30:17;;;;;;;6.07;3.22;;;19.10;93.40;;;;;;5009524;28;20034;-49
2022/09/23 10:32:44;;;;;;;4.00;3.55;;;19.10;93.70;;;;;;5010037;28;20030;-48
2022/09/23 10:35:10;;;;;;;4.43;3.50;;;18.90;93.40;;;;;;5010636;28;20549;-51
2022/09/23 10:37:39;;;;;;;4.13;3.45;;;18.80;93.90;;;;;;5010716;28;20022;-48
2022/09/23 10:49:26;;;;;;;7.63;3.20;;;18.10;94.70;;;;;;5012039;28;20032;-51
2022/09/23 10:52:06;;;;;;;3.38;3.08;;;18.00;94.40;;;;;;5011727;28;20026;-50
2022/09/23 10:54:40;;;;;;;5.43;2.65;;;18.00;95.00;;;;;;4993960;28;20063;-48
2022/09/23 10:57:40;;;;;;;4.72;2.53;;;18.00;95.60;;;;;;5011739;28;20032;-50
2022/09/23 11:00:21;;;;;;;5.30;3.28;;;17.90;94.90;;;;;;5012844;28;20110;-50
2022/09/23 11:02:49;;;;;;;4.03;3.63;;;17.70;95.30;;;;;;5011960;28;20025;-47
2022/09/23 11:05:27;;;;;;;4.50;3.63;;;17.60;95.00;;;;;;5011622;28;20426;-46
2022/09/23 11:08:20;;;;;;;4.28;3.33;;;17.50;95.60;;;;;;5002696;22;20039;-45
2022/09/23 11:11:21;;;;;;;3.38;3.00;;;17.50;95.80;;;;;;4976171;28;20073;-47
2022/09/23 11:14:15;;;;;;;4.47;3.80;;;17.50;95.90;;;;;;4974960;28;20573;-44
2022/09/23 11:17:04;;;;;;;3.63;3.25;;;17.30;95.80;;;;;;4977255;28;20058;-44
2022/09/23 11:19:49;;;;;;;4.40;3.03;;;17.40;96.80;;;;;;4978999;28;20018;-49
2022/09/23 11:22:41;;;;;;;4.93;3.25;;;17.40;96.70;;;;;;4977206;28;20027;-51
2022/09/23 11:26:01;;;;;;;4.38;3.28;;;17.50;97.10;;;;;;4977220;28;20033;-45
2022/09/23 11:28:40;;;;;;;4.05;3.63;;;17.40;97.10;;;;;;4972468;28;20035;-45
2022/09/23 11:31:19;;;;;;;10.70;3.70;;;17.40;96.60;;;;;;4966692;28;20039;-53
2022/09/23 11:34:14;;;;;;;4.47;3.17;;;17.40;97.20;;;;;;4982526;28;20106;-47
2022/09/23 11:36:51;;;;;;;6.55;4.70;;;17.30;97.50;;;;;;4980751;28;20030;-48
2022/09/23 11:39:22;;;;;;;7.32;3.22;;;17.30;97.50;;;;;;4979273;28;20094;-48
2022/09/23 11:41:51;;;;;;;4.03;3.63;;;17.30;97.70;;;;;;4978561;28;20050;-47
2022/09/23 11:44:27;;;;;;;3.47;3.15;;;17.30;97.50;;;;;;4979647;28;20035;-48
2022/09/23 11:47:07;;;;;;;3.70;3.28;;;17.30;96.90;;;;;;4980092;28;20026;-49
2022/09/23 11:49:42;;;;;;;4.15;3.17;;;17.20;97.30;;;;;;4980196;28;20046;-45
2022/09/23 11:52:18;;;;;;;3.15;2.70;;;17.20;97.70;;;;;;4979895;28;20027;-44
2022/09/23 11:55:25;;;;;;;3.15;2.60;;;17.20;98.10;;;;;;4961783;28;20065;-47
2022/09/23 11:58:04;;;;;;;3.17;2.28;;;17.10;98.20;;;;;;4962694;28;20024;-48
2022/09/23 12:00:37;;;;;;;5.13;3.53;;;17.20;98.00;;;;;;4962535;28;20487;-46
2022/09/23 12:03:24;;;;;;;4.95;3.13;;;17.20;97.70;;;;;;4980822;28;20035;-47
2022/09/23 12:05:59;;;;;;;7.05;2.97;;;17.30;97.90;;;;;;4980493;28;20050;-46
2022/09/23 12:08:33;;;;;;;3.75;2.75;;;17.30;97.60;;;;;;4980168;28;20514;-46
2022/09/23 12:11:13;;;;;;;4.97;2.35;;;17.30;97.60;;;;;;4979649;28;20070;-46
2022/09/23 12:14:01;;;;;;;3.22;2.92;;;17.30;98.10;;;;;;4976630;28;20030;-50
2022/09/23 12:16:41;;;;;;;6.38;2.88;;;17.40;98.70;;;;;;4975260;28;20495;-47
2022/09/23 12:19:41;;;;;;;3.22;3.00;;;17.40;98.40;;;;;;4975687;28;20031;-47
2022/09/23 12:22:19;;;;;;;6.72;3.33;;;17.40;98.50;;;;;;4975627;28;20443;-48
2022/09/23 12:24:58;;;;;;;3.45;2.75;;;17.50;98.60;;;;;;4974923;28;20034;-47
2022/09/23 12:27:27;;;;;;;4.97;2.53;;;17.50;98.80;;;;;;4975085;28;20026;-45
2022/09/23 12:29:58;;;;;;;2.97;2.60;;;17.50;98.70;;;;;;4975063;28;20027;-45
2022/09/23 12:32:25;;;;;;;2.70;2.50;;;17.50;99.20;;;;;;4974672;28;20061;-47
2022/09/23 12:34:52;;;;;;;5.43;2.85;;;17.60;99.30;;;;;;4974898;28;20026;-45
2022/09/23 12:37:33;;;;;;;4.85;2.90;;;17.50;98.50;;;;;;4974400;28;20034;-47
2022/09/23 12:40:08;;;;;;;3.10;2.80;;;17.50;98.60;;;;;;4974950;28;20027;-45
2022/09/23 12:42:38;;;;;;;3.28;2.70;;;17.50;98.60;;;;;;4974159;28;20070;-46
2022/09/23 12:45:33;;;;;;;5.05;3.00;;;17.60;99.00;;;;;;4974850;28;20118;-46
2022/09/23 12:48:03;;;;;;;3.70;2.83;;;17.60;98.50;;;;;;4974208;28;20447;-45
2022/09/23 12:51:06;;;;;;;4.45;2.83;;;17.60;98.70;;;;;;4973964;28;20065;-48
2022/09/23 12:53:32;;;;;;;3.30;2.72;;;17.60;98.70;;;;;;4974333;28;20507;-45
2022/09/23 12:55:58;;;;;;;14.02;9.27;;;17.60;98.70;;;;;;4974318;28;20062;-44
2022/09/23 12:58:42;;;;;;;47.42;31.73;;;17.70;98.80;;;;;;4974056;28;20030;-47
2022/09/23 13:01:17;;;;;;;30.17;22.15;;;17.70;98.50;;;;;;4974117;28;20023;-47
2022/09/23 13:06:52;;;;;;;5.03;2.67;;;17.80;98.80;;;;;;4974237;28;20402;-44
2022/09/23 13:09:23;;;;;;;3.58;2.80;;;17.90;98.70;;;;;;4973924;28;20226;-48
2022/09/23 13:11:51;;;;;;;7.40;3.28;;;17.90;98.90;;;;;;4973858;28;20026;-44
2022/09/23 13:14:21;;;;;;;5.45;3.78;;;18.00;97.90;;;;;;4974066;28;20019;-45
2022/09/23 13:16:48;;;;;;;5.72;2.92;;;17.90;97.50;;;;;;4973908;28;20105;-45
2022/09/23 13:19:26;;;;;;;6.72;3.65;;;18.00;97.80;;;;;;4973486;28;20023;-47
2022/09/23 13:22:07;;;;;;;4.35;3.50;;;17.80;97.80;;;;;;4972962;28;20030;-47
2022/09/23 13:24:52;;;;;;;6.30;3.63;;;17.80;98.10;;;;;;4973507;28;20098;-47
2022/09/23 13:27:27;;;;;;;4.20;3.42;;;17.90;97.80;;;;;;4974156;28;20402;-46
2022/09/23 13:29:58;;;;;;;5.00;3.47;;;17.80;98.00;;;;;;4973568;28;20037;-45